< < Back
Terminal Aerodrome Forecast


Current Version              Previous Versions:   1  2  3  4  5  6  7  8  9  

Terminal Aerodrome Forecast

167
FTAK31 PAJN 242300
TAFAHN
TAF
PAHN 242338Z 2500/2524 29007KT P6SM OVC090
     FM251200 30008KT P6SM SCT100
      AMD LTD TO CLD VIS AND WIND=



Latest METAR

899
SAUS70 KWBC 250800
MTRAHN
METAR KAHN 250751Z AUTO 00000KT 10SM -RA FEW070 BKN090 OVC110 14/13
A2992 RMK AO2 SLP127 P0001 T01440128


USA.gov is the U.S. government's official web portal to all federal, state and local government web resources and services.